sensor_id;sensor_type;location;lat;lon;timestamp;P1;durP1;ratioP1;P2;durP2;ratioP2
58681;SDS011;44460;40.162;18.294;2022-08-19T00:02:20;22.15;;;8.27;;
58681;SDS011;44460;40.162;18.294;2022-08-19T00:04:45;21.33;;;7.68;;
58681;SDS011;44460;40.162;18.294;2022-08-19T00:07:13;22.85;;;7.68;;
58681;SDS011;44460;40.162;18.294;2022-08-19T00:09:39;19.10;;;8.40;;
58681;SDS011;44460;40.162;18.294;2022-08-19T00:12:04;23.17;;;9.32;;
58681;SDS011;44460;40.162;18.294;2022-08-19T00:14:30;24.20;;;9.15;;
58681;SDS011;44460;40.162;18.294;2022-08-19T00:16:56;22.52;;;8.73;;
58681;SDS011;44460;40.162;18.294;2022-08-19T00:19:22;22.73;;;8.57;;
58681;SDS011;44460;40.162;18.294;2022-08-19T00:21:48;25.08;;;9.38;;
58681;SDS011;44460;40.162;18.294;2022-08-19T00:24:14;25.15;;;8.82;;
58681;SDS011;44460;40.162;18.294;2022-08-19T00:26:40;20.55;;;7.97;;
58681;SDS011;44460;40.162;18.294;2022-08-19T00:29:06;29.77;;;9.85;;
58681;SDS011;44460;40.162;18.294;2022-08-19T00:31:32;23.70;;;8.40;;
58681;SDS011;44460;40.162;18.294;2022-08-19T00:33:58;24.00;;;9.02;;
58681;SDS011;44460;40.162;18.294;2022-08-19T00:36:23;22.42;;;8.40;;
58681;SDS011;44460;40.162;18.294;2022-08-19T00:38:49;23.70;;;8.98;;
58681;SDS011;44460;40.162;18.294;2022-08-19T00:41:15;22.83;;;8.30;;
58681;SDS011;44460;40.162;18.294;2022-08-19T00:43:42;21.27;;;8.85;;
58681;SDS011;44460;40.162;18.294;2022-08-19T00:46:08;22.50;;;9.43;;
58681;SDS011;44460;40.162;18.294;2022-08-19T00:48:33;26.33;;;8.93;;
58681;SDS011;44460;40.162;18.294;2022-08-19T00:50:59;32.67;;;9.82;;
58681;SDS011;44460;40.162;18.294;2022-08-19T00:53:26;24.35;;;9.93;;
58681;SDS011;44460;40.162;18.294;2022-08-19T00:55:53;19.77;;;9.73;;
58681;SDS011;44460;40.162;18.294;2022-08-19T01:00:45;23.15;;;9.32;;
58681;SDS011;44460;40.162;18.294;2022-08-19T01:03:12;26.55;;;9.93;;
58681;SDS011;44460;40.162;18.294;2022-08-19T01:05:39;22.35;;;10.35;;
58681;SDS011;44460;40.162;18.294;2022-08-19T01:08:06;31.67;;;10.32;;
58681;SDS011;44460;40.162;18.294;2022-08-19T01:10:33;25.25;;;9.90;;
58681;SDS011;44460;40.162;18.294;2022-08-19T01:13:01;23.50;;;9.80;;
58681;SDS011;44460;40.162;18.294;2022-08-19T01:15:29;35.10;;;10.00;;
58681;SDS011;44460;40.162;18.294;2022-08-19T01:17:55;23.52;;;9.32;;
58681;SDS011;44460;40.162;18.294;2022-08-19T01:20:21;31.02;;;9.75;;
58681;SDS011;44460;40.162;18.294;2022-08-19T01:22:52;27.02;;;8.98;;
58681;SDS011;44460;40.162;18.294;2022-08-19T01:25:18;28.50;;;8.93;;
58681;SDS011;44460;40.162;18.294;2022-08-19T01:27:47;22.45;;;9.13;;
58681;SDS011;44460;40.162;18.294;2022-08-19T01:30:14;34.60;;;20.73;;
58681;SDS011;44460;40.162;18.294;2022-08-19T01:32:40;26.00;;;9.77;;
58681;SDS011;44460;40.162;18.294;2022-08-19T01:35:06;25.35;;;9.38;;
58681;SDS011;44460;40.162;18.294;2022-08-19T01:37:41;29.92;;;10.27;;
58681;SDS011;44460;40.162;18.294;2022-08-19T01:40:07;36.67;;;10.77;;
58681;SDS011;44460;40.162;18.294;2022-08-19T01:42:33;31.33;;;10.95;;
58681;SDS011;44460;40.162;18.294;2022-08-19T01:44:59;28.55;;;10.38;;
58681;SDS011;44460;40.162;18.294;2022-08-19T01:47:25;30.35;;;10.13;;
58681;SDS011;44460;40.162;18.294;2022-08-19T01:49:50;24.30;;;9.07;;
58681;SDS011;44460;40.162;18.294;2022-08-19T01:52:16;27.35;;;9.00;;
58681;SDS011;44460;40.162;18.294;2022-08-19T01:54:41;24.63;;;7.80;;
58681;SDS011;44460;40.162;18.294;2022-08-19T01:57:08;27.08;;;8.27;;
58681;SDS011;44460;40.162;18.294;2022-08-19T01:59:35;26.67;;;8.90;;
58681;SDS011;44460;40.162;18.294;2022-08-19T02:02:02;29.92;;;8.57;;
58681;SDS011;44460;40.162;18.294;2022-08-19T02:04:28;30.83;;;8.25;;
58681;SDS011;44460;40.162;18.294;2022-08-19T02:06:54;26.80;;;7.80;;
58681;SDS011;44460;40.162;18.294;2022-08-19T02:09:19;38.28;;;7.72;;
58681;SDS011;44460;40.162;18.294;2022-08-19T02:11:45;27.40;;;8.13;;
58681;SDS011;44460;40.162;18.294;2022-08-19T02:14:10;18.10;;;6.65;;
58681;SDS011;44460;40.162;18.294;2022-08-19T02:16:36;18.20;;;6.55;;
58681;SDS011;44460;40.162;18.294;2022-08-19T02:19:02;29.45;;;7.82;;
58681;SDS011;44460;40.162;18.294;2022-08-19T02:21:29;27.52;;;7.35;;
58681;SDS011;44460;40.162;18.294;2022-08-19T02:23:54;26.95;;;7.43;;
58681;SDS011;44460;40.162;18.294;2022-08-19T02:26:21;18.20;;;6.90;;
58681;SDS011;44460;40.162;18.294;2022-08-19T02:28:46;23.33;;;7.63;;
58681;SDS011;44460;40.162;18.294;2022-08-19T02:31:15;25.88;;;6.97;;
58681;SDS011;44460;40.162;18.294;2022-08-19T02:33:41;25.88;;;7.35;;
58681;SDS011;44460;40.162;18.294;2022-08-19T02:36:07;22.50;;;7.20;;
58681;SDS011;44460;40.162;18.294;2022-08-19T02:38:33;17.77;;;6.75;;
58681;SDS011;44460;40.162;18.294;2022-08-19T02:40:59;21.85;;;7.70;;
58681;SDS011;44460;40.162;18.294;2022-08-19T02:43:26;32.13;;;7.43;;
58681;SDS011;44460;40.162;18.294;2022-08-19T02:45:52;24.63;;;8.13;;
58681;SDS011;44460;40.162;18.294;2022-08-19T02:48:19;27.70;;;7.63;;
58681;SDS011;44460;40.162;18.294;2022-08-19T02:50:45;17.13;;;6.95;;
58681;SDS011;44460;40.162;18.294;2022-08-19T02:53:10;20.38;;;7.82;;
58681;SDS011;44460;40.162;18.294;2022-08-19T02:55:36;25.08;;;7.70;;
58681;SDS011;44460;40.162;18.294;2022-08-19T02:58:01;33.13;;;8.38;;
58681;SDS011;44460;40.162;18.294;2022-08-19T03:00:27;27.83;;;7.88;;
58681;SDS011;44460;40.162;18.294;2022-08-19T03:02:53;29.20;;;8.15;;
58681;SDS011;44460;40.162;18.294;2022-08-19T03:05:18;23.90;;;8.18;;
58681;SDS011;44460;40.162;18.294;2022-08-19T03:07:44;30.33;;;8.88;;
58681;SDS011;44460;40.162;18.294;2022-08-19T03:10:11;30.73;;;9.30;;
58681;SDS011;44460;40.162;18.294;2022-08-19T03:12:39;21.95;;;8.35;;
58681;SDS011;44460;40.162;18.294;2022-08-19T03:15:05;26.58;;;8.48;;
58681;SDS011;44460;40.162;18.294;2022-08-19T03:17:31;22.02;;;8.00;;
58681;SDS011;44460;40.162;18.294;2022-08-19T03:19:56;24.27;;;8.30;;
58681;SDS011;44460;40.162;18.294;2022-08-19T03:22:22;26.08;;;8.10;;
58681;SDS011;44460;40.162;18.294;2022-08-19T03:24:47;22.80;;;8.32;;
58681;SDS011;44460;40.162;18.294;2022-08-19T03:27:13;24.48;;;7.53;;
58681;SDS011;44460;40.162;18.294;2022-08-19T03:29:39;25.67;;;8.40;;
58681;SDS011;44460;40.162;18.294;2022-08-19T03:32:05;36.70;;;8.98;;
58681;SDS011;44460;40.162;18.294;2022-08-19T03:34:32;29.52;;;8.55;;
58681;SDS011;44460;40.162;18.294;2022-08-19T03:36:59;34.55;;;8.93;;
58681;SDS011;44460;40.162;18.294;2022-08-19T03:39:25;31.38;;;8.50;;
58681;SDS011;44460;40.162;18.294;2022-08-19T03:41:51;25.00;;;8.07;;
58681;SDS011;44460;40.162;18.294;2022-08-19T03:44:19;20.20;;;7.45;;
58681;SDS011;44460;40.162;18.294;2022-08-19T03:46:46;27.65;;;7.40;;
58681;SDS011;44460;40.162;18.294;2022-08-19T03:49:12;24.73;;;7.70;;
58681;SDS011;44460;40.162;18.294;2022-08-19T03:51:38;27.63;;;7.78;;
58681;SDS011;44460;40.162;18.294;2022-08-19T03:54:04;28.60;;;7.13;;
58681;SDS011;44460;40.162;18.294;2022-08-19T03:56:30;28.75;;;7.10;;
58681;SDS011;44460;40.162;18.294;2022-08-19T03:58:57;24.35;;;7.60;;
58681;SDS011;44460;40.162;18.294;2022-08-19T04:01:24;29.65;;;7.10;;
58681;SDS011;44460;40.162;18.294;2022-08-19T04:03:51;27.60;;;8.05;;
58681;SDS011;44460;40.162;18.294;2022-08-19T04:06:18;18.92;;;7.13;;
58681;SDS011;44460;40.162;18.294;2022-08-19T04:08:45;27.23;;;7.90;;
58681;SDS011;44460;40.162;18.294;2022-08-19T04:11:15;23.33;;;7.30;;
58681;SDS011;44460;40.162;18.294;2022-08-19T04:13:41;20.77;;;6.10;;
58681;SDS011;44460;40.162;18.294;2022-08-19T04:16:07;31.30;;;6.78;;
58681;SDS011;44460;40.162;18.294;2022-08-19T04:18:34;21.00;;;6.28;;
58681;SDS011;44460;40.162;18.294;2022-08-19T04:20:59;27.08;;;6.95;;
58681;SDS011;44460;40.162;18.294;2022-08-19T04:23:25;22.17;;;6.15;;
58681;SDS011;44460;40.162;18.294;2022-08-19T04:25:50;21.67;;;5.97;;
58681;SDS011;44460;40.162;18.294;2022-08-19T04:28:16;26.48;;;6.47;;
58681;SDS011;44460;40.162;18.294;2022-08-19T04:30:42;28.02;;;6.95;;
58681;SDS011;44460;40.162;18.294;2022-08-19T04:33:08;24.87;;;6.00;;
58681;SDS011;44460;40.162;18.294;2022-08-19T04:35:35;24.05;;;6.57;;
58681;SDS011;44460;40.162;18.294;2022-08-19T04:38:01;26.23;;;7.43;;
58681;SDS011;44460;40.162;18.294;2022-08-19T04:40:27;26.40;;;7.28;;
58681;SDS011;44460;40.162;18.294;2022-08-19T04:43:11;27.13;;;6.28;;
58681;SDS011;44460;40.162;18.294;2022-08-19T04:45:42;25.75;;;6.55;;
58681;SDS011;44460;40.162;18.294;2022-08-19T04:48:08;25.67;;;5.97;;
58681;SDS011;44460;40.162;18.294;2022-08-19T04:50:33;25.65;;;6.22;;
58681;SDS011;44460;40.162;18.294;2022-08-19T04:53:01;32.13;;;6.80;;
58681;SDS011;44460;40.162;18.294;2022-08-19T04:55:26;26.60;;;6.65;;
58681;SDS011;44460;40.162;18.294;2022-08-19T04:57:52;23.75;;;6.40;;
58681;SDS011;44460;40.162;18.294;2022-08-19T05:00:17;21.75;;;6.18;;
58681;SDS011;44460;40.162;18.294;2022-08-19T05:02:43;31.90;;;7.43;;
58681;SDS011;44460;40.162;18.294;2022-08-19T05:05:08;16.17;;;6.57;;
58681;SDS011;44460;40.162;18.294;2022-08-19T05:07:34;22.48;;;6.85;;
58681;SDS011;44460;40.162;18.294;2022-08-19T05:10:01;21.30;;;5.90;;
58681;SDS011;44460;40.162;18.294;2022-08-19T05:12:27;31.63;;;6.93;;
58681;SDS011;44460;40.162;18.294;2022-08-19T05:14:53;25.65;;;7.18;;
58681;SDS011;44460;40.162;18.294;2022-08-19T05:17:19;23.42;;;5.82;;
58681;SDS011;44460;40.162;18.294;2022-08-19T05:19:45;26.38;;;6.10;;
58681;SDS011;44460;40.162;18.294;2022-08-19T05:22:29;17.70;;;5.05;;
58681;SDS011;44460;40.162;18.294;2022-08-19T05:24:58;17.73;;;5.55;;
58681;SDS011;44460;40.162;18.294;2022-08-19T05:27:23;21.45;;;5.68;;
58681;SDS011;44460;40.162;18.294;2022-08-19T05:29:48;24.33;;;5.45;;
58681;SDS011;44460;40.162;18.294;2022-08-19T05:32:14;15.50;;;6.03;;
58681;SDS011;44460;40.162;18.294;2022-08-19T05:34:39;16.35;;;4.63;;
58681;SDS011;44460;40.162;18.294;2022-08-19T05:37:05;20.50;;;5.38;;
58681;SDS011;44460;40.162;18.294;2022-08-19T05:39:33;20.30;;;5.07;;
58681;SDS011;44460;40.162;18.294;2022-08-19T05:42:00;26.23;;;5.18;;
58681;SDS011;44460;40.162;18.294;2022-08-19T05:44:26;27.88;;;6.07;;
58681;SDS011;44460;40.162;18.294;2022-08-19T05:46:52;22.38;;;5.40;;
58681;SDS011;44460;40.162;18.294;2022-08-19T05:49:19;24.08;;;5.22;;
58681;SDS011;44460;40.162;18.294;2022-08-19T05:51:45;19.52;;;5.20;;
58681;SDS011;44460;40.162;18.294;2022-08-19T05:54:10;15.20;;;5.07;;
58681;SDS011;44460;40.162;18.294;2022-08-19T05:56:39;20.23;;;5.95;;
58681;SDS011;44460;40.162;18.294;2022-08-19T05:59:05;23.83;;;5.30;;
58681;SDS011;44460;40.162;18.294;2022-08-19T06:01:33;24.23;;;6.28;;
58681;SDS011;44460;40.162;18.294;2022-08-19T06:03:59;20.27;;;5.93;;
58681;SDS011;44460;40.162;18.294;2022-08-19T06:06:25;19.65;;;5.80;;
58681;SDS011;44460;40.162;18.294;2022-08-19T06:08:50;20.98;;;5.85;;
58681;SDS011;44460;40.162;18.294;2022-08-19T06:13:44;18.33;;;5.00;;
58681;SDS011;44460;40.162;18.294;2022-08-19T06:16:13;17.65;;;5.65;;
58681;SDS011;44460;40.162;18.294;2022-08-19T06:18:38;31.35;;;5.60;;
58681;SDS011;44460;40.162;18.294;2022-08-19T06:21:04;31.70;;;6.70;;
58681;SDS011;44460;40.162;18.294;2022-08-19T06:23:29;27.35;;;5.97;;
58681;SDS011;44460;40.162;18.294;2022-08-19T06:25:55;22.75;;;5.50;;
58681;SDS011;44460;40.162;18.294;2022-08-19T06:28:21;34.55;;;6.28;;
58681;SDS011;44460;40.162;18.294;2022-08-19T06:30:48;29.52;;;5.97;;
58681;SDS011;44460;40.162;18.294;2022-08-19T06:33:13;26.27;;;5.63;;
58681;SDS011;44460;40.162;18.294;2022-08-19T06:35:39;25.88;;;5.95;;
58681;SDS011;44460;40.162;18.294;2022-08-19T06:38:05;40.83;;;5.97;;
58681;SDS011;44460;40.162;18.294;2022-08-19T06:40:30;31.52;;;5.88;;
58681;SDS011;44460;40.162;18.294;2022-08-19T06:42:56;26.42;;;5.22;;
58681;SDS011;44460;40.162;18.294;2022-08-19T06:45:23;26.52;;;6.47;;
58681;SDS011;44460;40.162;18.294;2022-08-19T06:47:49;22.48;;;6.30;;
58681;SDS011;44460;40.162;18.294;2022-08-19T06:50:14;24.58;;;5.57;;
58681;SDS011;44460;40.162;18.294;2022-08-19T06:52:40;31.77;;;6.80;;
58681;SDS011;44460;40.162;18.294;2022-08-19T06:55:05;23.90;;;6.55;;
58681;SDS011;44460;40.162;18.294;2022-08-19T06:57:31;22.00;;;6.25;;
58681;SDS011;44460;40.162;18.294;2022-08-19T06:59:58;31.47;;;6.70;;
58681;SDS011;44460;40.162;18.294;2022-08-19T07:02:25;29.27;;;5.80;;
58681;SDS011;44460;40.162;18.294;2022-08-19T07:04:52;34.17;;;5.30;;
58681;SDS011;44460;40.162;18.294;2022-08-19T07:07:17;29.17;;;6.13;;
58681;SDS011;44460;40.162;18.294;2022-08-19T07:09:43;25.97;;;5.80;;
58681;SDS011;44460;40.162;18.294;2022-08-19T07:12:10;25.92;;;5.90;;
58681;SDS011;44460;40.162;18.294;2022-08-19T07:14:36;27.73;;;4.75;;
58681;SDS011;44460;40.162;18.294;2022-08-19T07:17:03;24.23;;;4.85;;
58681;SDS011;44460;40.162;18.294;2022-08-19T07:19:29;31.67;;;5.03;;
58681;SDS011;44460;40.162;18.294;2022-08-19T07:21:54;33.40;;;5.07;;
58681;SDS011;44460;40.162;18.294;2022-08-19T07:24:21;23.73;;;4.83;;
58681;SDS011;44460;40.162;18.294;2022-08-19T07:26:50;30.40;;;6.18;;
58681;SDS011;44460;40.162;18.294;2022-08-19T07:29:16;34.75;;;5.85;;
58681;SDS011;44460;40.162;18.294;2022-08-19T07:31:41;25.03;;;4.90;;
58681;SDS011;44460;40.162;18.294;2022-08-19T07:34:08;24.67;;;4.83;;
58681;SDS011;44460;40.162;18.294;2022-08-19T07:36:34;29.95;;;5.40;;
58681;SDS011;44460;40.162;18.294;2022-08-19T07:39:02;27.77;;;5.22;;
58681;SDS011;44460;40.162;18.294;2022-08-19T07:41:28;21.27;;;4.72;;
58681;SDS011;44460;40.162;18.294;2022-08-19T07:43:55;25.35;;;5.20;;
58681;SDS011;44460;40.162;18.294;2022-08-19T07:46:21;30.03;;;6.37;;
58681;SDS011;44460;40.162;18.294;2022-08-19T07:48:47;28.20;;;7.67;;
58681;SDS011;44460;40.162;18.294;2022-08-19T07:53:39;33.75;;;7.60;;
58681;SDS011;44460;40.162;18.294;2022-08-19T07:56:04;37.43;;;6.00;;
58681;SDS011;44460;40.162;18.294;2022-08-19T07:58:31;36.07;;;6.33;;
58681;SDS011;44460;40.162;18.294;2022-08-19T08:00:57;31.13;;;6.80;;
58681;SDS011;44460;40.162;18.294;2022-08-19T08:03:23;33.65;;;6.60;;
58681;SDS011;44460;40.162;18.294;2022-08-19T08:06:09;36.33;;;5.55;;
58681;SDS011;44460;40.162;18.294;2022-08-19T08:08:53;30.88;;;5.30;;
58681;SDS011;44460;40.162;18.294;2022-08-19T08:11:46;26.05;;;4.90;;
58681;SDS011;44460;40.162;18.294;2022-08-19T08:14:16;28.20;;;5.30;;
58681;SDS011;44460;40.162;18.294;2022-08-19T08:16:41;33.28;;;5.40;;
58681;SDS011;44460;40.162;18.294;2022-08-19T08:19:09;30.65;;;5.80;;
58681;SDS011;44460;40.162;18.294;2022-08-19T08:21:34;19.97;;;5.03;;
58681;SDS011;44460;40.162;18.294;2022-08-19T08:23:59;32.07;;;6.83;;
58681;SDS011;44460;40.162;18.294;2022-08-19T08:26:25;31.07;;;5.57;;
58681;SDS011;44460;40.162;18.294;2022-08-19T08:28:51;43.20;;;5.90;;
58681;SDS011;44460;40.162;18.294;2022-08-19T08:31:17;33.25;;;5.55;;
58681;SDS011;44460;40.162;18.294;2022-08-19T08:33:44;32.00;;;5.30;;
58681;SDS011;44460;40.162;18.294;2022-08-19T08:36:10;22.50;;;5.10;;
58681;SDS011;44460;40.162;18.294;2022-08-19T08:38:36;48.60;;;5.72;;
58681;SDS011;44460;40.162;18.294;2022-08-19T08:41:06;32.17;;;5.07;;
58681;SDS011;44460;40.162;18.294;2022-08-19T08:43:37;30.45;;;5.53;;
58681;SDS011;44460;40.162;18.294;2022-08-19T08:46:15;32.40;;;5.18;;
58681;SDS011;44460;40.162;18.294;2022-08-19T08:48:51;32.33;;;5.03;;
58681;SDS011;44460;40.162;18.294;2022-08-19T08:51:20;31.70;;;5.82;;
58681;SDS011;44460;40.162;18.294;2022-08-19T08:53:48;31.10;;;5.45;;
58681;SDS011;44460;40.162;18.294;2022-08-19T08:56:14;29.58;;;5.50;;
58681;SDS011;44460;40.162;18.294;2022-08-19T09:01:08;43.75;;;5.13;;
58681;SDS011;44460;40.162;18.294;2022-08-19T09:03:34;29.35;;;5.70;;
58681;SDS011;44460;40.162;18.294;2022-08-19T09:10:51;28.00;;;4.83;;
58681;SDS011;44460;40.162;18.294;2022-08-19T09:13:20;29.85;;;5.00;;
58681;SDS011;44460;40.162;18.294;2022-08-19T09:15:52;28.20;;;5.07;;
58681;SDS011;44460;40.162;18.294;2022-08-19T09:18:19;30.48;;;5.30;;
58681;SDS011;44460;40.162;18.294;2022-08-19T09:20:45;30.67;;;5.43;;
58681;SDS011;44460;40.162;18.294;2022-08-19T09:23:12;31.17;;;6.20;;
58681;SDS011;44460;40.162;18.294;2022-08-19T09:25:37;33.23;;;5.83;;
58681;SDS011;44460;40.162;18.294;2022-08-19T09:28:05;27.65;;;5.47;;
58681;SDS011;44460;40.162;18.294;2022-08-19T09:30:33;33.53;;;4.83;;
58681;SDS011;44460;40.162;18.294;2022-08-19T09:32:59;31.85;;;5.63;;
58681;SDS011;44460;40.162;18.294;2022-08-19T09:35:25;30.87;;;5.17;;
58681;SDS011;44460;40.162;18.294;2022-08-19T09:37:51;25.58;;;6.13;;
58681;SDS011;44460;40.162;18.294;2022-08-19T09:40:18;33.47;;;5.60;;
58681;SDS011;44460;40.162;18.294;2022-08-19T09:42:44;24.27;;;5.33;;
58681;SDS011;44460;40.162;18.294;2022-08-19T09:45:11;25.65;;;5.10;;
58681;SDS011;44460;40.162;18.294;2022-08-19T09:47:37;36.30;;;6.90;;
58681;SDS011;44460;40.162;18.294;2022-08-19T09:50:06;31.90;;;6.78;;
58681;SDS011;44460;40.162;18.294;2022-08-19T09:52:32;28.48;;;6.05;;
58681;SDS011;44460;40.162;18.294;2022-08-19T09:54:58;27.10;;;6.47;;
58681;SDS011;44460;40.162;18.294;2022-08-19T09:57:24;39.97;;;7.20;;
58681;SDS011;44460;40.162;18.294;2022-08-19T09:59:49;22.40;;;5.57;;
58681;SDS011;44460;40.162;18.294;2022-08-19T10:02:14;33.27;;;6.00;;
58681;SDS011;44460;40.162;18.294;2022-08-19T10:04:40;30.43;;;6.20;;
58681;SDS011;44460;40.162;18.294;2022-08-19T10:07:24;39.60;;;6.68;;
58681;SDS011;44460;40.162;18.294;2022-08-19T10:09:49;32.30;;;6.33;;
58681;SDS011;44460;40.162;18.294;2022-08-19T10:12:15;28.63;;;6.50;;
58681;SDS011;44460;40.162;18.294;2022-08-19T10:14:40;30.90;;;5.63;;
58681;SDS011;44460;40.162;18.294;2022-08-19T10:17:06;33.87;;;6.60;;
58681;SDS011;44460;40.162;18.294;2022-08-19T10:19:31;35.77;;;6.40;;
58681;SDS011;44460;40.162;18.294;2022-08-19T10:22:04;29.17;;;6.53;;
58681;SDS011;44460;40.162;18.294;2022-08-19T10:24:30;28.85;;;6.35;;
58681;SDS011;44460;40.162;18.294;2022-08-19T10:26:56;34.90;;;6.13;;
58681;SDS011;44460;40.162;18.294;2022-08-19T10:29:22;62.65;;;10.18;;
58681;SDS011;44460;40.162;18.294;2022-08-19T10:31:47;29.40;;;7.20;;
58681;SDS011;44460;40.162;18.294;2022-08-19T10:34:13;28.50;;;6.13;;
58681;SDS011;44460;40.162;18.294;2022-08-19T10:36:38;30.63;;;7.57;;
58681;SDS011;44460;40.162;18.294;2022-08-19T10:39:06;28.33;;;6.07;;
58681;SDS011;44460;40.162;18.294;2022-08-19T10:41:32;29.67;;;5.43;;
58681;SDS011;44460;40.162;18.294;2022-08-19T10:43:59;28.90;;;6.25;;
58681;SDS011;44460;40.162;18.294;2022-08-19T10:46:26;30.95;;;5.97;;
58681;SDS011;44460;40.162;18.294;2022-08-19T10:48:52;43.10;;;6.30;;
58681;SDS011;44460;40.162;18.294;2022-08-19T10:51:18;30.33;;;6.22;;
58681;SDS011;44460;40.162;18.294;2022-08-19T10:54:01;26.55;;;5.82;;
58681;SDS011;44460;40.162;18.294;2022-08-19T10:56:27;35.73;;;7.23;;
58681;SDS011;44460;40.162;18.294;2022-08-19T10:59:11;35.70;;;6.25;;
58681;SDS011;44460;40.162;18.294;2022-08-19T11:01:39;41.97;;;6.93;;
58681;SDS011;44460;40.162;18.294;2022-08-19T11:04:05;26.95;;;6.18;;
58681;SDS011;44460;40.162;18.294;2022-08-19T11:06:34;30.88;;;5.38;;
58681;SDS011;44460;40.162;18.294;2022-08-19T11:08:59;39.90;;;6.60;;
58681;SDS011;44460;40.162;18.294;2022-08-19T11:11:25;29.30;;;5.70;;
58681;SDS011;44460;40.162;18.294;2022-08-19T11:13:51;31.87;;;6.27;;
58681;SDS011;44460;40.162;18.294;2022-08-19T11:16:19;36.00;;;6.72;;
58681;SDS011;44460;40.162;18.294;2022-08-19T11:18:46;27.48;;;5.97;;
58681;SDS011;44460;40.162;18.294;2022-08-19T11:23:37;35.33;;;6.23;;
58681;SDS011;44460;40.162;18.294;2022-08-19T11:26:03;29.73;;;6.27;;
58681;SDS011;44460;40.162;18.294;2022-08-19T11:28:28;35.30;;;6.53;;
58681;SDS011;44460;40.162;18.294;2022-08-19T11:30:53;33.60;;;6.67;;
58681;SDS011;44460;40.162;18.294;2022-08-19T11:33:19;29.50;;;6.57;;
58681;SDS011;44460;40.162;18.294;2022-08-19T11:35:44;29.97;;;5.97;;
58681;SDS011;44460;40.162;18.294;2022-08-19T11:38:10;37.63;;;6.87;;
58681;SDS011;44460;40.162;18.294;2022-08-19T11:40:36;26.45;;;5.72;;
58681;SDS011;44460;40.162;18.294;2022-08-19T11:43:02;33.90;;;6.33;;
58681;SDS011;44460;40.162;18.294;2022-08-19T11:45:28;24.03;;;5.97;;
58681;SDS011;44460;40.162;18.294;2022-08-19T11:47:54;33.13;;;6.13;;
58681;SDS011;44460;40.162;18.294;2022-08-19T11:50:20;30.15;;;7.05;;
58681;SDS011;44460;40.162;18.294;2022-08-19T11:52:45;27.37;;;5.07;;
58681;SDS011;44460;40.162;18.294;2022-08-19T11:55:12;40.80;;;6.90;;
58681;SDS011;44460;40.162;18.294;2022-08-19T12:00:04;33.90;;;5.70;;
58681;SDS011;44460;40.162;18.294;2022-08-19T12:02:31;29.63;;;6.95;;
58681;SDS011;44460;40.162;18.294;2022-08-19T12:04:56;22.93;;;5.90;;
58681;SDS011;44460;40.162;18.294;2022-08-19T12:07:22;29.10;;;5.67;;
58681;SDS011;44460;40.162;18.294;2022-08-19T12:09:48;39.37;;;7.07;;
58681;SDS011;44460;40.162;18.294;2022-08-19T12:12:13;27.47;;;5.47;;
58681;SDS011;44460;40.162;18.294;2022-08-19T12:14:39;43.63;;;7.73;;
58681;SDS011;44460;40.162;18.294;2022-08-19T12:17:04;28.10;;;6.23;;
58681;SDS011;44460;40.162;18.294;2022-08-19T12:19:32;32.30;;;5.97;;
58681;SDS011;44460;40.162;18.294;2022-08-19T12:22:00;32.83;;;5.55;;
58681;SDS011;44460;40.162;18.294;2022-08-19T12:24:28;37.83;;;7.28;;
58681;SDS011;44460;40.162;18.294;2022-08-19T12:26:54;33.30;;;7.03;;
58681;SDS011;44460;40.162;18.294;2022-08-19T12:29:23;33.28;;;5.47;;
58681;SDS011;44460;40.162;18.294;2022-08-19T12:31:53;39.78;;;6.32;;
58681;SDS011;44460;40.162;18.294;2022-08-19T12:34:19;35.67;;;6.37;;
58681;SDS011;44460;40.162;18.294;2022-08-19T12:36:45;40.30;;;6.82;;
58681;SDS011;44460;40.162;18.294;2022-08-19T12:39:10;41.40;;;7.67;;
58681;SDS011;44460;40.162;18.294;2022-08-19T12:41:36;34.77;;;6.77;;
58681;SDS011;44460;40.162;18.294;2022-08-19T12:44:02;36.10;;;6.88;;
58681;SDS011;44460;40.162;18.294;2022-08-19T12:46:28;33.30;;;7.25;;
58681;SDS011;44460;40.162;18.294;2022-08-19T12:48:54;35.85;;;6.75;;
58681;SDS011;44460;40.162;18.294;2022-08-19T12:51:19;35.20;;;7.73;;
58681;SDS011;44460;40.162;18.294;2022-08-19T12:53:45;36.33;;;7.73;;
58681;SDS011;44460;40.162;18.294;2022-08-19T12:56:11;35.92;;;8.57;;
58681;SDS011;44460;40.162;18.294;2022-08-19T12:58:39;43.90;;;8.10;;
58681;SDS011;44460;40.162;18.294;2022-08-19T13:01:08;42.05;;;7.05;;
58681;SDS011;44460;40.162;18.294;2022-08-19T13:03:33;40.15;;;6.97;;
58681;SDS011;44460;40.162;18.294;2022-08-19T13:05:59;37.87;;;6.90;;
58681;SDS011;44460;40.162;18.294;2022-08-19T13:08:24;30.07;;;6.60;;
58681;SDS011;44460;40.162;18.294;2022-08-19T13:10:50;45.73;;;6.83;;
58681;SDS011;44460;40.162;18.294;2022-08-19T13:13:16;36.50;;;7.22;;
58681;SDS011;44460;40.162;18.294;2022-08-19T13:15:41;34.37;;;6.60;;
58681;SDS011;44460;40.162;18.294;2022-08-19T13:18:10;40.38;;;7.15;;
58681;SDS011;44460;40.162;18.294;2022-08-19T13:20:41;42.53;;;6.97;;
58681;SDS011;44460;40.162;18.294;2022-08-19T13:23:08;38.75;;;7.28;;
58681;SDS011;44460;40.162;18.294;2022-08-19T13:25:33;36.13;;;6.87;;
58681;SDS011;44460;40.162;18.294;2022-08-19T13:27:59;42.33;;;6.80;;
58681;SDS011;44460;40.162;18.294;2022-08-19T13:30:25;35.28;;;6.50;;
58681;SDS011;44460;40.162;18.294;2022-08-19T13:33:09;39.42;;;7.18;;
58681;SDS011;44460;40.162;18.294;2022-08-19T13:35:43;32.08;;;7.05;;
58681;SDS011;44460;40.162;18.294;2022-08-19T13:38:11;32.92;;;7.05;;
58681;SDS011;44460;40.162;18.294;2022-08-19T13:40:39;44.38;;;7.32;;
58681;SDS011;44460;40.162;18.294;2022-08-19T13:43:05;34.83;;;7.00;;
58681;SDS011;44460;40.162;18.294;2022-08-19T13:45:31;39.03;;;7.20;;
58681;SDS011;44460;40.162;18.294;2022-08-19T13:48:00;39.05;;;7.47;;
58681;SDS011;44460;40.162;18.294;2022-08-19T13:50:30;33.38;;;6.90;;
58681;SDS011;44460;40.162;18.294;2022-08-19T13:52:56;36.53;;;7.40;;
58681;SDS011;44460;40.162;18.294;2022-08-19T13:55:22;30.07;;;6.50;;
58681;SDS011;44460;40.162;18.294;2022-08-19T13:57:52;38.17;;;7.73;;
58681;SDS011;44460;40.162;18.294;2022-08-19T14:00:18;40.83;;;8.07;;
58681;SDS011;44460;40.162;18.294;2022-08-19T14:02:45;25.35;;;6.28;;
58681;SDS011;44460;40.162;18.294;2022-08-19T14:05:12;38.72;;;7.60;;
58681;SDS011;44460;40.162;18.294;2022-08-19T14:07:38;32.97;;;7.10;;
58681;SDS011;44460;40.162;18.294;2022-08-19T14:10:04;37.40;;;6.50;;
58681;SDS011;44460;40.162;18.294;2022-08-19T14:12:30;44.60;;;6.25;;
58681;SDS011;44460;40.162;18.294;2022-08-19T14:14:57;37.33;;;6.25;;
58681;SDS011;44460;40.162;18.294;2022-08-19T14:17:22;30.57;;;5.73;;
58681;SDS011;44460;40.162;18.294;2022-08-19T14:19:48;40.08;;;7.75;;
58681;SDS011;44460;40.162;18.294;2022-08-19T14:22:13;36.35;;;6.82;;
58681;SDS011;44460;40.162;18.294;2022-08-19T14:24:39;30.57;;;6.77;;
58681;SDS011;44460;40.162;18.294;2022-08-19T14:27:05;37.17;;;7.57;;
58681;SDS011;44460;40.162;18.294;2022-08-19T14:29:31;47.53;;;8.05;;
58681;SDS011;44460;40.162;18.294;2022-08-19T14:31:57;33.97;;;7.07;;
58681;SDS011;44460;40.162;18.294;2022-08-19T14:36:50;34.80;;;7.28;;
58681;SDS011;44460;40.162;18.294;2022-08-19T14:39:15;46.63;;;8.33;;
58681;SDS011;44460;40.162;18.294;2022-08-19T14:41:41;33.20;;;6.97;;